Time;durP1;ratioP1;P1;durP2;ratioP2;P2;SDS_P1;SDS_P2;PMS_P1;PMS_P2;Temp;Humidity;BMP_temperature;BMP_pressure;BME280_temperature;BME280_humidity;BME280_pressure;Samples;Min_cycle;Max_cycle;Signal;HPM_P1;HPM_P2
2022/08/08 00:00:04;;;;;;;17.00;10.00;;;;;;;19.71;77.58;100108.13;6004133;23;20082;-64
2022/08/08 00:02:48;;;;;;;21.60;9.95;;;;;;;19.71;77.27;100099.81;6027818;23;20448;-64
2022/08/08 00:05:22;;;;;;;19.40;10.25;;;;;;;19.70;76.90;100098.19;6004864;23;20058;-64
2022/08/08 00:07:56;;;;;;;23.92;9.98;;;;;;;19.71;77.34;100105.34;6008314;23;20079;-65
2022/08/08 00:10:28;;;;;;;17.02;9.65;;;;;;;19.72;76.88;100106.97;6015242;23;20023;-64
2022/08/08 00:13:04;;;;;;;20.45;9.82;;;;;;;19.70;76.75;100101.78;6007405;23;20047;-64
2022/08/08 00:15:35;;;;;;;17.65;9.15;;;;;;;19.70;77.33;100107.34;6039971;23;20027;-64
2022/08/08 00:18:12;;;;;;;16.80;9.70;;;;;;;19.75;76.95;100106.34;6031932;23;20425;-65
2022/08/08 00:20:42;;;;;;;13.85;9.57;;;;;;;19.77;76.81;100106.00;6043440;23;20058;-62
2022/08/08 00:23:14;;;;;;;20.85;9.93;;;;;;;19.79;76.78;100106.47;5981756;23;20047;-63
2022/08/08 00:25:42;;;;;;;16.75;9.38;;;;;;;19.78;76.63;100113.19;6040960;23;20045;-64
2022/08/08 00:28:14;;;;;;;16.33;8.23;;;;;;;19.76;76.36;100101.59;6042823;23;20023;-65
2022/08/08 00:30:49;;;;;;;15.88;8.30;;;;;;;19.78;76.29;100113.19;6043812;23;20541;-65
2022/08/08 00:33:20;;;;;;;14.02;7.88;;;;;;;19.78;75.48;100108.47;6015669;23;20027;-64
2022/08/08 00:35:53;;;;;;;13.43;7.93;;;;;;;19.77;75.59;100106.84;6030097;23;20023;-64
2022/08/08 00:38:36;;;;;;;15.85;7.78;;;;;;;19.78;75.04;100104.84;6009644;23;20043;-62
2022/08/08 00:41:33;;;;;;;14.85;8.57;;;;;;;19.80;74.94;100105.34;5985619;23;20075;-64
2022/08/08 00:44:41;;;;;;;17.20;8.30;;;;;;;19.81;74.90;100109.75;6031199;23;20034;-65
2022/08/08 00:47:46;;;;;;;16.00;8.02;;;;;;;19.80;74.86;100108.94;5972489;23;20102;-63
2022/08/08 00:50:54;;;;;;;14.43;8.25;;;;;;;19.82;74.56;100111.38;6035553;23;20467;-64
2022/08/08 00:53:43;;;;;;;16.88;8.52;;;;;;;19.83;74.84;100105.50;5940626;23;20033;-64
2022/08/08 00:56:39;;;;;;;12.38;7.50;;;;;;;19.84;74.39;100114.66;6042845;23;20027;-64
2022/08/08 00:59:49;;;;;;;16.30;8.00;;;;;;;19.76;74.39;100109.91;5946343;23;20023;-65
2022/08/08 01:02:52;;;;;;;13.57;7.20;;;;;;;19.67;74.34;100109.94;6014680;23;20480;-65
2022/08/08 01:06:02;;;;;;;16.65;7.07;;;;;;;19.63;74.24;100118.09;6013612;23;20019;-65
2022/08/08 01:09:17;;;;;;;16.67;7.30;;;;;;;19.61;74.12;100116.81;5964853;23;20051;-64
2022/08/08 01:12:32;;;;;;;15.55;8.25;;;;;;;19.59;73.83;100111.59;5885430;23;20132;-65
2022/08/08 01:15:36;;;;;;;14.68;7.78;;;;;;;19.56;73.61;100121.38;5980886;23;20027;-64
2022/08/08 01:18:25;;;;;;;14.30;7.60;;;;;;;19.54;73.88;100120.09;5954657;23;20097;-64
2022/08/08 01:21:09;;;;;;;16.65;8.13;;;;;;;19.53;73.83;100122.03;5985608;23;20455;-64
2022/08/08 01:24:23;;;;;;;14.82;7.82;;;;;;;19.50;74.14;100114.38;6009025;23;20467;-65
2022/08/08 01:27:42;;;;;;;18.45;7.95;;;;;;;19.53;74.17;100112.91;5870970;24;20037;-64
2022/08/08 01:30:41;;;;;;;14.70;7.47;;;;;;;19.55;74.05;100110.63;6008958;23;20031;-65
2022/08/08 01:33:31;;;;;;;17.58;8.35;;;;;;;19.59;73.43;100110.75;6032594;23;20031;-63
2022/08/08 01:36:56;;;;;;;18.50;8.20;;;;;;;19.60;73.07;100106.88;6005387;23;20482;-64
2022/08/08 01:39:33;;;;;;;18.42;8.20;;;;;;;19.59;73.07;100106.03;5870606;24;20373;-64
2022/08/08 01:42:10;;;;;;;18.17;8.48;;;;;;;19.58;73.34;100100.81;5870464;24;20035;-65
2022/08/08 01:45:02;;;;;;;15.82;8.65;;;;;;;19.60;72.68;100101.31;5893291;24;20167;-64
2022/08/08 01:47:47;;;;;;;17.42;8.25;;;;;;;19.59;72.51;100108.81;5899890;24;20120;-63
2022/08/08 01:50:28;;;;;;;17.08;8.23;;;;;;;19.63;72.84;100108.97;5907161;24;20046;-62
2022/08/08 01:53:03;;;;;;;18.13;8.27;;;;;;;19.63;72.95;100104.22;5927505;24;20025;-65
2022/08/08 01:55:40;;;;;;;17.70;8.27;;;;;;;19.64;72.62;100102.28;5894956;24;20032;-65
2022/08/08 01:58:29;;;;;;;12.98;7.75;;;;;;;19.68;72.80;100106.84;5892439;24;20107;-64
2022/08/08 02:01:03;;;;;;;;;;;;;;;19.68;73.02;100101.31;5871516;24;20032;-65
2022/08/08 02:03:52;;;;;;;15.95;7.93;;;;;;;19.68;73.07;100101.31;5881901;24;20372;-65
2022/08/08 02:06:31;;;;;;;16.83;8.30;;;;;;;19.82;73.19;100108.59;5880365;24;20075;-65
2022/08/08 02:09:02;;;;;;;16.52;9.93;;;;;;;19.92;73.42;100113.03;5895175;24;20029;-65
2022/08/08 02:11:36;;;;;;;24.80;10.27;;;;;;;19.88;73.54;100109.22;5984829;23;20034;-64
2022/08/08 02:27:02;;;;;;;19.75;11.93;;;;;;;20.07;75.44;100115.28;5104838;27;20492;-72
2022/08/08 02:29:51;;;;;;;22.38;12.98;;;;;;;20.12;75.31;100117.03;5103335;28;20040;-70
2022/08/08 02:32:36;;;;;;;22.83;12.77;;;;;;;20.14;74.99;100109.22;5084466;28;20568;-71
2022/08/08 02:35:34;;;;;;;20.08;13.45;;;;;;;20.18;74.82;100106.56;5103108;28;20059;-71
2022/08/08 02:38:31;;;;;;;28.13;15.15;;;;;;;20.13;75.56;100107.56;5086924;28;20059;-71
2022/08/08 02:41:41;;;;;;;24.33;14.95;;;;;;;20.06;75.37;100108.09;5101574;28;20174;-66
2022/08/08 02:44:44;;;;;;;27.55;15.15;;;;;;;20.00;75.99;100119.69;5085331;28;20051;-67
2022/08/08 02:47:42;;;;;;;23.40;15.05;;;;;;;19.99;76.29;100129.97;5081643;28;20048;-66
2022/08/08 02:50:49;;;;;;;23.85;14.50;;;;;;;19.94;76.51;100125.41;5087820;28;20062;-70
2022/08/08 02:54:00;;;;;;;26.13;15.85;;;;;;;19.85;76.85;100130.16;5093151;28;20185;-70
2022/08/08 02:56:54;;;;;;;24.65;16.15;;;;;;;19.76;77.48;100130.16;5047612;28;20052;-72
2022/08/08 02:59:56;;;;;;;23.90;16.33;;;;;;;19.73;77.71;100139.13;5082869;28;20142;-70
2022/08/08 03:03:05;;;;;;;25.67;16.05;;;;;;;19.77;77.58;100134.56;5066147;28;20051;-70
2022/08/08 03:06:18;;;;;;;24.13;16.83;;;;;;;19.78;77.85;100141.75;5081673;28;20550;-71
2022/08/08 03:09:20;;;;;;;24.85;16.02;;;;;;;19.76;77.43;100141.25;5084421;28;20097;-71
2022/08/08 03:12:31;;;;;;;27.25;15.82;;;;;;;19.76;77.36;100148.75;5080193;28;20103;-71
2022/08/08 03:15:13;;;;;;;30.42;15.25;;;;;;;19.73;77.05;100150.22;5081757;28;20050;-72
2022/08/08 03:17:47;;;;;;;23.20;14.25;;;;;;;19.65;77.15;100151.84;5080558;28;20044;-71
2022/08/08 03:20:14;;;;;;;23.60;12.45;;;;;;;19.61;77.12;100158.41;5087933;28;20076;-71
2022/08/08 03:22:46;;;;;;;19.08;11.93;;;;;;;19.56;77.26;100165.72;5090853;28;20047;-72
2022/08/08 03:25:15;;;;;;;22.88;11.73;;;;;;;19.55;77.27;100175.19;5086326;28;20126;-72
2022/08/08 03:27:48;;;;;;;17.85;10.45;;;;;;;19.53;77.23;100157.28;5069147;28;20423;-72
2022/08/08 03:30:15;;;;;;;15.90;9.77;;;;;;;19.50;76.92;100164.28;5036576;28;20074;-72
2022/08/08 03:35:29;;;;;;;16.42;8.68;;;;;;;19.40;77.22;100175.69;5067177;28;20626;-70
2022/08/08 03:37:59;;;;;;;18.55;10.95;;;;;;;19.37;77.17;100173.56;5066073;28;20504;-72
2022/08/08 03:40:25;;;;;;;17.05;8.52;;;;;;;19.34;77.14;100172.25;5065861;28;20052;-73
2022/08/08 03:42:52;;;;;;;14.13;8.27;;;;;;;19.31;76.92;100184.00;5067622;28;20573;-72
2022/08/08 03:45:25;;;;;;;24.23;9.05;;;;;;;19.22;77.33;100174.88;5068313;28;20126;-72
2022/08/08 03:47:56;;;;;;;16.27;8.48;;;;;;;19.27;77.11;100194.09;5061292;28;20140;-66
2022/08/08 03:50:23;;;;;;;15.07;8.52;;;;;;;19.25;77.18;100191.66;5068951;28;20122;-66
2022/08/08 03:52:49;;;;;;;14.20;7.85;;;;;;;19.25;77.17;100199.97;5065887;28;20086;-67
2022/08/08 03:55:19;;;;;;;12.73;7.43;;;;;;;19.27;76.98;100203.22;5065537;28;20049;-67
2022/08/08 03:57:47;;;;;;;12.75;7.50;;;;;;;19.30;76.91;100204.53;5067418;28;20473;-67
2022/08/08 04:00:16;;;;;;;13.57;6.90;;;;;;;19.39;76.33;100201.78;5066052;28;20424;-67
2022/08/08 04:02:56;;;;;;;14.43;7.20;;;;;;;19.42;76.38;100210.28;5070068;28;20070;-67
2022/08/08 04:05:24;;;;;;;12.98;6.50;;;;;;;19.51;75.90;100206.66;5067175;28;20052;-67
2022/08/08 04:07:51;;;;;;;12.27;5.65;;;;;;;19.54;75.53;100203.28;5067183;28;20048;-66
2022/08/08 04:10:18;;;;;;;12.10;6.53;;;;;;;19.65;74.74;100207.31;5068639;28;20060;-67
2022/08/08 04:12:45;;;;;;;13.52;5.68;;;;;;;19.65;74.59;100212.06;5069925;28;20578;-67
2022/08/08 04:15:11;;;;;;;17.55;5.97;;;;;;;19.63;74.51;100208.81;5067703;28;20141;-66
2022/08/08 04:17:37;;;;;;;16.20;6.38;;;;;;;19.63;74.71;100206.84;5068637;28;20507;-67
2022/08/08 04:20:05;;;;;;;12.65;6.40;;;;;;;19.67;73.96;100202.28;5067949;28;20048;-66
2022/08/08 04:22:32;;;;;;;16.10;7.43;;;;;;;19.74;73.20;100198.19;5049164;28;20040;-67
2022/08/08 04:24:58;;;;;;;12.60;6.50;;;;;;;19.77;72.94;100209.47;5064409;28;20159;-67
2022/08/08 04:27:26;;;;;;;11.93;5.77;;;;;;;19.84;72.41;100206.19;5066538;28;20048;-66
2022/08/08 04:29:52;;;;;;;15.32;6.40;;;;;;;19.86;72.12;100211.41;5065370;28;20178;-66
2022/08/08 04:32:19;;;;;;;14.00;6.55;;;;;;;19.91;71.55;100211.25;5065322;28;20044;-67
2022/08/08 04:34:45;;;;;;;13.57;6.30;;;;;;;19.99;71.33;100216.00;5066631;28;20052;-67
2022/08/08 04:37:12;;;;;;;12.53;5.93;;;;;;;20.04;71.29;100217.78;5066573;28;20072;-67
2022/08/08 04:39:39;;;;;;;12.82;6.10;;;;;;;20.13;70.88;100218.56;5065728;28;20294;-67
2022/08/08 04:42:07;;;;;;;13.40;5.85;;;;;;;20.22;70.42;100226.91;5066625;28;20150;-66
2022/08/08 04:44:34;;;;;;;11.43;5.53;;;;;;;20.18;70.50;100221.19;5077617;28;20509;-66
2022/08/08 04:47:01;;;;;;;13.68;6.25;;;;;;;20.04;70.64;100226.13;5101355;28;20079;-66
2022/08/08 04:49:28;;;;;;;11.90;5.32;;;;;;;19.90;70.93;100229.00;5085474;28;20056;-71
2022/08/08 04:51:54;;;;;;;12.77;5.72;;;;;;;19.83;71.03;100232.31;5084148;28;20089;-72
2022/08/08 04:54:20;;;;;;;15.07;5.38;;;;;;;19.72;71.15;100234.56;5070127;28;20048;-72
2022/08/08 04:56:46;;;;;;;12.90;5.40;;;;;;;19.66;71.09;100242.25;5064243;28;20056;-72
2022/08/08 04:59:12;;;;;;;11.25;5.22;;;;;;;19.62;71.10;100255.13;5062465;28;20387;-73
2022/08/08 05:01:39;;;;;;;12.38;5.18;;;;;;;19.62;70.97;100252.34;5070653;28;20112;-72
2022/08/08 05:04:06;;;;;;;13.60;4.78;;;;;;;19.65;70.62;100257.25;5080855;28;20052;-72
2022/08/08 05:06:37;;;;;;;12.85;5.85;;;;;;;19.75;70.22;100249.75;5066491;28;20045;-72
2022/08/08 05:09:03;;;;;;;12.67;6.30;;;;;;;19.85;69.98;100249.44;5050624;28;20046;-73
2022/08/08 05:11:31;;;;;;;14.48;6.93;;;;;;;19.88;69.50;100246.00;5066441;28;20051;-72
2022/08/08 05:13:59;;;;;;;15.05;6.32;;;;;;;20.02;69.02;100256.94;5066271;28;20044;-71
2022/08/08 05:16:25;;;;;;;11.85;6.45;;;;;;;20.16;68.77;100248.47;5050508;28;20062;-71
2022/08/08 05:18:55;;;;;;;13.38;5.63;;;;;;;20.28;68.07;100242.22;5050428;28;20095;-72
2022/08/08 05:21:21;;;;;;;12.40;5.90;;;;;;;20.41;67.58;100237.63;5066798;28;20458;-66
2022/08/08 05:23:48;;;;;;;15.68;6.60;;;;;;;20.66;66.63;100235.91;5082304;28;20131;-66
2022/08/08 05:26:14;;;;;;;16.10;6.68;;;;;;;20.93;65.87;100244.16;5084875;28;20060;-67
2022/08/08 05:28:40;;;;;;;17.48;6.93;;;;;;;21.09;65.03;100239.66;5096114;28;20126;-68
2022/08/08 05:31:07;;;;;;;15.45;6.68;;;;;;;21.16;64.89;100243.88;5090178;28;20540;-67
2022/08/08 05:33:34;;;;;;;13.35;6.32;;;;;;;21.15;64.32;100245.03;5108496;28;20202;-67
2022/08/08 05:36:02;;;;;;;12.05;5.80;;;;;;;21.04;64.58;100245.41;5108732;28;20108;-73
2022/08/08 05:38:29;;;;;;;13.82;6.68;;;;;;;20.95;64.69;100242.66;5104758;28;20079;-72
2022/08/08 05:41:04;;;;;;;14.55;6.57;;;;;;;21.00;64.60;100250.00;5069009;28;20052;-66
2022/08/08 05:43:33;;;;;;;17.02;6.53;;;;;;;21.05;64.35;100252.59;5062431;28;20059;-73
2022/08/08 05:46:07;;;;;;;12.38;6.13;;;;;;;21.11;64.03;100254.03;5050787;28;20098;-71
2022/08/08 05:48:37;;;;;;;15.05;5.47;;;;;;;21.19;63.74;100257.91;5067284;28;20105;-71
2022/08/08 05:51:07;;;;;;;15.57;5.70;;;;;;;21.18;63.40;100261.03;5076848;28;20117;-73
2022/08/08 05:53:33;;;;;;;13.27;6.07;;;;;;;21.18;63.63;100263.81;5049909;28;20072;-72
2022/08/08 05:56:00;;;;;;;13.43;5.50;;;;;;;21.16;63.25;100261.38;5067987;28;20067;-73
2022/08/08 05:58:28;;;;;;;11.23;5.93;;;;;;;21.30;63.15;100263.06;5067058;28;20395;-72
2022/08/08 06:00:56;;;;;;;15.40;5.60;;;;;;;21.45;62.66;100265.25;5068454;28;20056;-72
2022/08/08 06:03:23;;;;;;;10.98;6.10;;;;;;;21.59;62.28;100265.03;5068112;28;20052;-72
2022/08/08 06:05:52;;;;;;;12.60;6.25;;;;;;;21.75;61.59;100272.78;5050569;28;20049;-72
2022/08/08 06:08:26;;;;;;;16.05;7.55;;;;;;;21.84;61.11;100275.50;5067092;28;20102;-72
2022/08/08 06:10:56;;;;;;;17.48;8.13;;;;;;;21.92;60.87;100269.03;5050909;28;20044;-71
2022/08/08 06:13:25;;;;;;;16.48;8.25;;;;;;;21.90;61.14;100276.91;5065926;28;20143;-72
2022/08/08 06:15:54;;;;;;;16.73;8.38;;;;;;;21.92;60.75;100274.59;5062151;28;20056;-72
2022/08/08 06:18:31;;;;;;;18.42;8.02;;;;;;;21.91;60.79;100282.16;5063071;28;20543;-65
2022/08/08 06:20:59;;;;;;;15.25;8.40;;;;;;;21.89;60.96;100278.91;5084091;28;20817;-67
2022/08/08 06:23:29;;;;;;;15.07;8.27;;;;;;;21.83;61.11;100291.38;5081281;28;20139;-66
2022/08/08 06:26:00;;;;;;;15.13;9.30;;;;;;;21.86;61.19;100287.94;5086806;28;20056;-66
2022/08/08 06:28:32;;;;;;;14.70;8.35;;;;;;;21.76;61.41;100289.13;5083029;28;20105;-67
2022/08/08 06:31:01;;;;;;;16.83;9.27;;;;;;;21.76;61.28;100296.69;5083577;28;20426;-67
2022/08/08 06:33:35;;;;;;;15.77;9.23;;;;;;;21.80;61.21;100300.41;5077926;28;20090;-68
2022/08/08 06:36:03;;;;;;;19.20;9.50;;;;;;;21.86;61.13;100298.25;5075246;28;20549;-67
2022/08/08 06:38:34;;;;;;;17.63;8.35;;;;;;;21.80;61.28;100286.50;5072653;28;20045;-66
2022/08/08 06:41:04;;;;;;;14.52;8.45;;;;;;;21.93;60.90;100296.53;5074784;28;20048;-66
2022/08/08 06:43:34;;;;;;;16.17;8.60;;;;;;;22.06;60.55;100293.81;5078690;28;20056;-65
2022/08/08 06:46:11;;;;;;;14.75;8.90;;;;;;;22.19;60.21;100292.72;5070922;28;20079;-67
2022/08/08 06:48:38;;;;;;;23.98;8.27;;;;;;;22.28;59.65;100294.59;5053353;28;20614;-67
2022/08/08 06:51:04;;;;;;;19.40;7.75;;;;;;;22.42;59.29;100302.66;5064561;28;20059;-67
2022/08/08 06:53:33;;;;;;;17.55;7.72;;;;;;;22.49;58.80;100306.56;5076319;28;20048;-67
2022/08/08 06:56:00;;;;;;;19.13;8.52;;;;;;;22.51;58.95;100300.63;5074324;28;20044;-67
2022/08/08 06:58:26;;;;;;;17.27;7.85;;;;;;;22.52;58.63;100311.44;5073922;28;20059;-67
2022/08/08 07:00:55;;;;;;;16.05;7.10;;;;;;;22.43;59.11;100307.06;5061151;28;20043;-67
2022/08/08 07:03:30;;;;;;;14.20;7.32;;;;;;;22.34;59.91;100310.75;5074889;28;20359;-67
2022/08/08 07:06:02;;;;;;;15.20;7.80;;;;;;;22.19;59.99;100303.03;5054640;28;20044;-72
2022/08/08 07:08:36;;;;;;;21.90;8.75;;;;;;;22.15;60.09;100304.88;5071057;28;20051;-71
2022/08/08 07:11:04;;;;;;;24.42;7.63;;;;;;;22.07;59.95;100298.22;5069322;28;20154;-72
2022/08/08 07:13:37;;;;;;;20.50;7.68;;;;;;;21.96;60.39;100306.19;5079623;28;20044;-66
2022/08/08 07:16:11;;;;;;;15.45;7.13;;;;;;;21.91;60.58;100306.38;5087449;28;20075;-68
2022/08/08 07:18:54;;;;;;;15.27;6.88;;;;;;;21.89;60.68;100305.91;5070011;28;20454;-67
2022/08/08 07:21:27;;;;;;;16.88;7.28;;;;;;;21.83;61.12;100312.84;5083925;28;20068;-67
2022/08/08 07:24:06;;;;;;;13.27;6.97;;;;;;;21.79;61.12;100304.34;5085559;28;20048;-67
2022/08/08 07:26:52;;;;;;;23.13;7.35;;;;;;;21.67;61.50;100307.88;5079757;28;20301;-67
2022/08/08 07:29:20;;;;;;;14.80;7.13;;;;;;;21.48;62.42;100308.28;5087081;28;20040;-67
2022/08/08 07:31:46;;;;;;;19.08;6.85;;;;;;;21.41;62.57;100305.25;5068061;28;20059;-67
2022/08/08 07:34:16;;;;;;;22.30;8.20;;;;;;;21.39;62.52;100308.34;5077569;28;20047;-67
2022/08/08 07:36:42;;;;;;;21.40;8.95;;;;;;;21.38;62.39;100309.50;5079679;28;20058;-67
2022/08/08 07:39:10;;;;;;;16.95;8.90;;;;;;;21.38;62.11;100318.63;5073403;28;20094;-67
2022/08/08 07:41:40;;;;;;;20.00;7.97;;;;;;;21.32;62.28;100310.84;5068447;28;20075;-66
2022/08/08 07:44:07;;;;;;;21.25;8.55;;;;;;;21.37;62.08;100322.56;5085324;28;20419;-66
2022/08/08 07:46:33;;;;;;;19.38;8.70;;;;;;;21.35;62.31;100319.31;5059463;28;20551;-67
2022/08/08 07:49:05;;;;;;;19.80;9.50;;;;;;;21.27;62.69;100322.97;5080859;28;20513;-67
2022/08/08 07:51:32;;;;;;;;;;;;;;;21.21;62.59;100324.28;5079363;28;20522;-68
2022/08/08 07:54:07;;;;;;;21.05;9.02;;;;;;;21.19;62.71;100326.59;5084976;28;20077;-67
2022/08/08 07:56:48;;;;;;;17.83;9.05;;;;;;;21.19;62.63;100327.44;5078703;28;20059;-67
2022/08/08 07:59:15;;;;;;;20.58;8.20;;;;;;;21.27;62.31;100324.94;5056257;28;20797;-72
2022/08/08 08:01:53;;;;;;;17.67;7.57;;;;;;;21.47;61.78;100324.19;5084095;28;20097;-72
2022/08/08 08:04:24;;;;;;;18.20;7.78;;;;;;;21.60;61.47;100319.50;5085909;28;20044;-72
2022/08/08 08:06:52;;;;;;;16.75;7.53;;;;;;;21.74;61.21;100329.59;5082638;28;20590;-72
2022/08/08 08:09:24;;;;;;;18.45;7.35;;;;;;;21.84;60.90;100323.63;5084127;28;20147;-72
2022/08/08 08:11:54;;;;;;;18.73;7.40;;;;;;;22.06;60.35;100322.47;5080271;28;20122;-73
2022/08/08 08:14:41;;;;;;;18.38;7.63;;;;;;;22.27;59.56;100320.81;5072502;28;20524;-72
2022/08/08 08:17:11;;;;;;;15.75;6.85;;;;;;;22.46;59.05;100328.66;5084277;28;20048;-72
2022/08/08 08:19:38;;;;;;;21.83;7.30;;;;;;;22.70;58.38;100322.38;5075917;28;20044;-72
2022/08/08 08:22:05;;;;;;;18.15;7.18;;;;;;;22.98;57.44;100321.75;5061399;28;20036;-71
2022/08/08 08:24:36;;;;;;;23.05;7.57;;;;;;;23.39;56.13;100326.66;5076074;28;20036;-73
2022/08/08 08:27:06;;;;;;;16.27;7.03;;;;;;;23.76;55.00;100321.03;5052791;28;20496;-72
2022/08/08 08:29:33;;;;;;;20.23;8.20;;;;;;;24.07;54.31;100317.59;5075978;28;20146;-66
2022/08/08 08:32:00;;;;;;;20.85;8.32;;;;;;;24.22;53.65;100320.78;5080836;28;20228;-68
2022/08/08 08:34:26;;;;;;;23.25;8.20;;;;;;;24.34;53.42;100326.31;5073438;28;20044;-67
2022/08/08 08:36:52;;;;;;;25.15;6.80;;;;;;;24.52;52.89;100328.00;5064571;28;20120;-65
2022/08/08 08:39:19;;;;;;;23.88;8.80;;;;;;;24.65;52.48;100332.34;5080977;28;20044;-67
2022/08/08 08:41:46;;;;;;;17.23;8.20;;;;;;;24.67;52.55;100323.59;5082284;28;20044;-66
2022/08/08 08:44:15;;;;;;;17.50;8.52;;;;;;;24.58;52.73;100326.56;5058203;28;20098;-67
2022/08/08 08:46:44;;;;;;;15.32;8.35;;;;;;;24.52;52.97;100322.41;5077256;28;20080;-67
2022/08/08 08:49:10;;;;;;;18.25;8.77;;;;;;;24.66;52.07;100327.56;5070956;28;20136;-67
2022/08/08 08:51:40;;;;;;;21.25;10.70;;;;;;;24.92;51.81;100319.50;5054965;28;20036;-73
2022/08/08 08:54:11;;;;;;;18.10;8.90;;;;;;;25.19;50.91;100324.56;5074084;28;20529;-72
2022/08/08 08:56:39;;;;;;;18.85;9.18;;;;;;;25.18;50.45;100329.31;5071082;28;20518;-73
2022/08/08 08:59:12;;;;;;;17.88;9.52;;;;;;;24.94;51.42;100326.72;5070339;28;20407;-72
2022/08/08 09:01:43;;;;;;;19.65;9.35;;;;;;;24.79;51.52;100326.34;5057148;28;20454;-71
2022/08/08 09:04:20;;;;;;;19.92;8.75;;;;;;;24.66;52.33;100330.34;5061931;28;20036;-72
2022/08/08 09:06:49;;;;;;;23.70;9.23;;;;;;;24.91;51.55;100323.47;5080760;28;20075;-72
2022/08/08 09:09:19;;;;;;;20.52;9.10;;;;;;;25.86;49.01;100320.91;5064528;28;20461;-72
2022/08/08 09:11:47;;;;;;;19.35;8.77;;;;;;;26.93;47.16;100314.19;5033130;28;20543;-72
2022/08/08 09:14:18;;;;;;;20.17;8.90;;;;;;;27.63;45.19;100310.47;5066414;28;20044;-68
2022/08/08 09:16:46;;;;;;;20.13;8.68;;;;;;;28.74;43.01;100310.19;5049404;28;20059;-72
2022/08/08 09:19:13;;;;;;;18.23;10.07;;;;;;;28.80;41.63;100311.50;4711843;28;9999906;-72
2022/08/08 09:21:40;;;;;;;19.00;9.35;;;;;;;28.10;43.43;100309.09;5075202;28;20097;-72
2022/08/08 09:24:07;;;;;;;23.00;12.10;;;;;;;27.57;44.61;100315.63;5069418;28;20098;-73
2022/08/08 09:26:42;;;;;;;21.48;10.57;;;;;;;27.38;44.84;100319.31;5066886;28;20143;-71
2022/08/08 09:29:13;;;;;;;26.45;10.73;;;;;;;27.40;45.05;100323.38;5074858;28;20044;-73
2022/08/08 09:31:51;;;;;;;19.35;10.00;;;;;;;27.43;44.65;100319.81;5070482;28;20044;-72
2022/08/08 09:34:20;;;;;;;22.80;10.15;;;;;;;27.38;44.67;100324.94;5078661;28;20063;-72
2022/08/08 09:36:47;;;;;;;23.55;9.70;;;;;;;27.30;44.93;100330.41;5060963;28;20059;-73
2022/08/08 09:39:18;;;;;;;23.35;9.68;;;;;;;27.21;44.72;100326.25;5065289;28;20043;-72
2022/08/08 09:41:51;;;;;;;17.88;9.30;;;;;;;27.18;45.05;100325.03;5068273;28;20047;-72
2022/08/08 09:44:20;;;;;;;18.40;8.98;;;;;;;27.18;45.08;100320.22;5071648;28;20036;-73
2022/08/08 09:46:47;;;;;;;23.38;9.55;;;;;;;27.30;44.88;100327.59;5068302;28;20053;-74
2022/08/08 09:49:15;;;;;;;24.20;10.05;;;;;;;27.50;44.48;100321.09;5066509;28;20081;-73
2022/08/08 09:51:42;;;;;;;22.65;9.85;;;;;;;28.35;42.46;100321.84;5070765;28;20200;-73
2022/08/08 09:54:08;;;;;;;17.25;8.90;;;;;;;29.66;39.67;100316.16;5073002;28;20059;-72
2022/08/08 09:56:36;;;;;;;15.90;9.27;;;;;;;30.97;37.51;100313.75;5079592;28;20055;-73
2022/08/08 09:59:04;;;;;;;19.55;8.20;;;;;;;31.42;36.22;100321.81;5069589;28;20154;-72
2022/08/08 10:01:32;;;;;;;16.40;9.25;;;;;;;30.32;37.49;100325.72;5076681;28;20048;-73
2022/08/08 10:03:59;;;;;;;18.42;9.50;;;;;;;29.39;39.89;100324.00;5079177;28;20534;-72
2022/08/08 10:06:28;;;;;;;18.98;9.63;;;;;;;29.50;39.75;100310.81;5062866;28;20075;-72
2022/08/08 10:08:54;;;;;;;17.42;8.60;;;;;;;28.91;40.84;100320.03;5083631;28;20059;-72
2022/08/08 10:11:22;;;;;;;14.63;8.87;;;;;;;28.01;42.63;100317.00;5075780;28;20048;-72
2022/08/08 10:13:53;;;;;;;17.70;9.90;;;;;;;27.50;43.22;100313.50;5077624;28;20515;-73
2022/08/08 10:16:20;;;;;;;19.75;9.30;;;;;;;27.61;43.58;100313.66;5065529;28;20554;-67
2022/08/08 10:18:47;;;;;;;21.58;9.35;;;;;;;27.47;43.32;100319.84;5073932;28;20616;-67
2022/08/08 10:21:17;;;;;;;20.80;8.98;;;;;;;27.27;44.13;100316.34;5056300;28;20059;-68
2022/08/08 10:23:45;;;;;;;18.83;8.77;;;;;;;27.01;44.51;100318.75;5069763;28;20434;-68
2022/08/08 10:26:16;;;;;;;16.40;8.93;;;;;;;27.14;44.29;100324.97;5068364;28;20058;-67
2022/08/08 10:28:55;;;;;;;17.17;6.93;;;;;;;27.49;43.61;100331.53;5054284;28;20056;-67
2022/08/08 10:34:14;;;;;;;11.73;6.82;;;;;;;26.48;45.39;100333.41;5076953;28;20151;-67
2022/08/08 10:36:41;;;;;;;17.75;8.32;;;;;;;25.87;47.10;100347.72;5080105;28;20048;-67
2022/08/08 10:39:10;;;;;;;17.63;7.57;;;;;;;25.61;47.65;100337.97;5087586;28;20163;-68
2022/08/08 10:41:37;;;;;;;15.73;8.05;;;;;;;25.74;47.51;100349.03;5087093;28;20405;-67
2022/08/08 10:44:04;;;;;;;14.35;8.30;;;;;;;26.04;46.58;100345.69;5088224;28;20055;-67
2022/08/08 10:46:30;;;;;;;16.30;8.05;;;;;;;26.39;45.91;100341.22;5078296;28;20045;-68
2022/08/08 10:48:57;;;;;;;14.65;7.90;;;;;;;27.09;44.37;100342.13;5074512;28;20044;-68
2022/08/08 10:51:25;;;;;;;13.85;7.53;;;;;;;28.19;42.16;100339.75;5089077;28;20051;-67
2022/08/08 10:53:54;;;;;;;20.83;7.55;;;;;;;28.72;41.09;100329.47;5085700;28;20091;-65
2022/08/08 10:56:22;;;;;;;16.65;7.70;;;;;;;29.46;39.74;100326.09;5076338;28;20052;-67
2022/08/08 10:58:56;;;;;;;15.95;7.78;;;;;;;30.08;38.53;100318.81;5080751;28;20157;-68
2022/08/08 11:01:27;;;;;;;19.50;6.38;;;;;;;29.77;38.58;100315.41;5081583;28;20044;-72
2022/08/08 11:03:57;;;;;;;13.10;6.60;;;;;;;30.12;38.29;100311.94;5084274;28;20040;-72
2022/08/08 11:06:28;;;;;;;13.85;6.32;;;;;;;30.41;37.71;100314.84;5079571;28;20109;-73
2022/08/08 11:09:00;;;;;;;15.52;6.05;;;;;;;30.99;36.67;100320.59;5082302;28;20063;-72
2022/08/08 11:11:35;;;;;;;15.65;7.78;;;;;;;31.56;35.29;100309.66;5061396;28;20544;-73
2022/08/08 11:14:01;;;;;;;16.67;6.55;;;;;;;31.78;35.24;100310.44;5076141;28;20055;-72
2022/08/08 11:16:31;;;;;;;12.85;6.57;;;;;;;32.06;34.39;100307.91;5088482;28;20098;-73
2022/08/08 11:18:59;;;;;;;11.90;5.80;;;;;;;32.61;33.61;100319.75;5064039;28;20055;-72
2022/08/08 11:21:27;;;;;;;10.73;5.90;;;;;;;31.64;34.95;100321.75;5077187;28;20049;-72
2022/08/08 11:23:57;;;;;;;13.05;6.93;;;;;;;30.15;37.43;100316.00;5079837;28;20044;-72
2022/08/08 11:26:26;;;;;;;15.98;6.80;;;;;;;30.51;37.30;100321.72;5082547;28;20066;-73
2022/08/08 11:28:57;;;;;;;12.10;5.45;;;;;;;31.38;35.68;100321.81;5076792;28;20090;-73
2022/08/08 11:31:26;;;;;;;12.82;6.65;;;;;;;31.48;35.23;100330.69;5085624;28;20505;-74
2022/08/08 11:33:56;;;;;;;13.90;6.10;;;;;;;30.97;36.00;100327.84;5079642;28;20048;-72
2022/08/08 11:36:22;;;;;;;11.05;6.70;;;;;;;30.93;36.05;100329.88;5058486;28;20147;-68
2022/08/08 11:38:50;;;;;;;;;;;;;;;32.29;33.92;100330.00;5076463;28;20097;-72
2022/08/08 11:41:17;;;;;;;13.07;6.18;;;;;;;31.38;34.74;100335.16;5078011;28;20398;-75
2022/08/08 11:43:45;;;;;;;12.73;5.85;;;;;;;29.88;37.69;100329.53;5073142;28;20048;-72
2022/08/08 11:46:14;;;;;;;13.93;5.40;;;;;;;29.37;38.51;100332.03;5075672;28;20064;-74
2022/08/08 11:48:41;;;;;;;24.52;5.90;;;;;;;29.32;38.46;100341.66;5070619;28;20177;-72
2022/08/08 11:51:08;;;;;;;19.55;6.00;;;;;;;29.53;38.70;100341.03;5076214;28;20048;-72
2022/08/08 11:53:34;;;;;;;;;;;;;;;29.64;38.42;100335.47;5076589;28;20098;-72
2022/08/08 11:56:00;;;;;;;15.35;5.07;;;;;;;28.83;39.46;100341.66;5073268;28;19928;-72
2022/08/08 11:58:31;;;;;;;14.13;5.18;;;;;;;28.22;40.82;100338.16;5078199;28;20049;-73
2022/08/08 12:00:57;;;;;;;9.75;4.82;;;;;;;28.59;40.78;100335.34;5067777;28;20537;-72
2022/08/08 12:03:26;;;;;;;10.07;5.10;;;;;;;29.40;39.19;100332.03;5070321;28;20570;-73
2022/08/08 12:05:53;;;;;;;11.55;5.20;;;;;;;29.75;38.28;100327.06;5068574;28;20048;-72